createdAt,value
2017-11-26T00:00:57.933Z,936.7
2017-11-26T00:02:00.209Z,937.5
2017-11-26T00:03:02.726Z,936.7
2017-11-26T00:04:05.045Z,936.6
2017-11-26T00:05:08.823Z,936.6
2017-11-26T00:06:11.169Z,936.6
2017-11-26T00:07:13.431Z,936.7
2017-11-26T00:08:15.759Z,937.5
2017-11-26T00:09:17.805Z,937.6
2017-11-26T00:10:20.922Z,936.8
2017-11-26T00:11:23.257Z,936.8
2017-11-26T00:12:26.157Z,936.8
2017-11-26T00:13:28.473Z,936.8
2017-11-26T00:14:30.904Z,936.8
2017-11-26T00:15:34.395Z,936.8
2017-11-26T00:16:36.761Z,936.8
2017-11-26T00:17:39.056Z,936.9
2017-11-26T00:18:41.356Z,937.8
2017-11-26T00:19:43.691Z,936.9
2017-11-26T00:20:45.946Z,936.9
2017-11-26T00:21:48.148Z,937.7
2017-11-26T00:22:50.541Z,936.9
2017-11-26T00:23:53.582Z,936.9
2017-11-26T00:24:55.880Z,937.8
2017-11-26T00:25:59.538Z,937
2017-11-26T00:27:01.794Z,937
2017-11-26T00:28:04.121Z,937
2017-11-26T00:29:07.362Z,936.9
2017-11-26T00:30:09.688Z,937
2017-11-26T00:31:12.031Z,937.9
2017-11-26T00:32:14.335Z,937.1
2017-11-26T00:33:16.711Z,937
2017-11-26T00:34:19.074Z,937.1
2017-11-26T00:35:21.364Z,937.1
2017-11-26T00:36:24.757Z,937.1
2017-11-26T00:37:27.002Z,938
2017-11-26T00:38:29.416Z,937.2
2017-11-26T00:39:32.632Z,937.2
2017-11-26T00:40:34.975Z,938.1
2017-11-26T00:41:37.215Z,937.2
2017-11-26T00:42:39.529Z,938.1
2017-11-26T00:43:41.825Z,937.2
2017-11-26T00:44:44.092Z,937.2
2017-11-26T00:45:46.385Z,937.3
2017-11-26T00:46:50.093Z,936.2
2017-11-26T00:47:52.397Z,938.2
2017-11-26T00:48:54.706Z,937.3
2017-11-26T00:49:57.014Z,937.4
2017-11-26T00:50:59.375Z,938.3
2017-11-26T00:52:01.752Z,937.4
2017-11-26T00:53:04.003Z,937.4
2017-11-26T00:54:06.368Z,938.3
2017-11-26T00:55:08.960Z,937.5
2017-11-26T00:56:11.320Z,937.5
2017-11-26T00:57:15.183Z,937.5
2017-11-26T00:58:17.528Z,937.5
2017-11-26T00:59:19.896Z,937.6
2017-11-26T01:00:22.198Z,937.6
2017-11-26T01:01:24.540Z,938.5
2017-11-26T01:02:26.879Z,937.6
2017-11-26T01:03:29.333Z,937.7
2017-11-26T01:04:31.674Z,937.7
2017-11-26T01:05:33.914Z,937.7
2017-11-26T01:06:36.218Z,937.7
2017-11-26T01:07:39.895Z,937.7
2017-11-26T01:08:42.258Z,938.7
2017-11-26T01:09:44.620Z,937.8
2017-11-26T01:10:47.006Z,937.8
2017-11-26T01:11:49.254Z,937.8
2017-11-26T01:12:51.557Z,937.8
2017-11-26T01:13:53.874Z,937.8
2017-11-26T01:14:56.105Z,937.9
2017-11-26T01:15:58.510Z,938
2017-11-26T01:17:00.835Z,937.9
2017-11-26T01:18:04.550Z,938
2017-11-26T01:19:06.791Z,938
2017-11-26T01:20:09.117Z,938
2017-11-26T01:21:11.760Z,939
2017-11-26T01:22:14.141Z,938.1
2017-11-26T01:23:16.456Z,938.1
2017-11-26T01:24:18.807Z,938.1
2017-11-26T01:25:21.086Z,938.1
2017-11-26T01:26:23.426Z,938.1
2017-11-26T01:27:25.759Z,939
2017-11-26T01:28:29.361Z,938
2017-11-26T01:29:31.665Z,938.1
2017-11-26T01:30:33.961Z,938.1
2017-11-26T01:31:36.582Z,938.2
2017-11-26T01:32:38.978Z,938.1
2017-11-26T01:33:41.306Z,938.2
2017-11-26T01:34:43.613Z,938.2
2017-11-26T01:35:45.901Z,938.1
2017-11-26T01:36:48.512Z,939.1
2017-11-26T01:37:50.761Z,938.2
2017-11-26T01:38:54.315Z,938.2
2017-11-26T01:39:56.554Z,939.1
2017-11-26T01:40:58.834Z,939.1
2017-11-26T01:42:01.217Z,938.2
2017-11-26T01:43:03.552Z,938.1
2017-11-26T01:44:05.888Z,938.1
2017-11-26T01:45:08.193Z,938.1
2017-11-26T01:46:10.487Z,938.1
2017-11-26T01:47:13.184Z,938.2
2017-11-26T01:48:16.447Z,938.1
2017-11-26T01:49:20.103Z,938.2
2017-11-26T01:50:22.509Z,938.2
2017-11-26T01:51:23.439Z,939.2
2017-11-26T01:52:25.714Z,938.2
2017-11-26T01:53:28.013Z,938.2
2017-11-26T01:54:30.264Z,939.2
2017-11-26T01:55:32.582Z,938.3
2017-11-26T01:56:34.881Z,939.2
2017-11-26T01:57:37.232Z,938.3
2017-11-26T01:58:39.653Z,938.3
2017-11-26T01:59:43.430Z,938.3
2017-11-26T02:00:45.718Z,938.3
2017-11-26T02:01:48.037Z,939.2
2017-11-26T02:02:50.382Z,939.2
2017-11-26T02:03:52.725Z,938.3
2017-11-26T02:04:55.004Z,938.3
2017-11-26T02:05:57.330Z,938.4
2017-11-26T02:06:59.874Z,939.4
2017-11-26T02:08:02.186Z,938.4
2017-11-26T02:09:04.492Z,938.4
2017-11-26T02:10:08.211Z,938.4
2017-11-26T02:11:10.476Z,938.5
2017-11-26T02:12:12.769Z,938.4
2017-11-26T02:13:15.399Z,938.5
2017-11-26T02:14:17.702Z,938.6
2017-11-26T02:15:20.033Z,938.6
2017-11-26T02:16:22.319Z,938.5
2017-11-26T02:17:24.684Z,938.5
2017-11-26T02:18:27.366Z,938.5
2017-11-26T02:19:29.683Z,938.5
2017-11-26T02:20:33.275Z,938.5
2017-11-26T02:21:35.672Z,938.5
2017-11-26T02:22:37.902Z,938.5
2017-11-26T02:23:40.306Z,938.6
2017-11-26T02:24:42.562Z,938.7
2017-11-26T02:25:44.938Z,938.7
2017-11-26T02:26:47.208Z,938.6
2017-11-26T02:27:49.433Z,939.7
2017-11-26T02:28:51.835Z,938.7
2017-11-26T02:29:54.181Z,938.7
2017-11-26T02:30:57.797Z,938.8
2017-11-26T02:32:00.157Z,938.8
2017-11-26T02:33:02.434Z,938.9
2017-11-26T02:34:04.754Z,938.8
2017-11-26T02:35:07.759Z,938.8
2017-11-26T02:36:10.045Z,938.9
2017-11-26T02:37:12.422Z,938.9
2017-11-26T02:38:14.784Z,938.9
2017-11-26T02:39:17.143Z,938.9
2017-11-26T02:40:19.496Z,938.8
2017-11-26T02:41:23.137Z,938.9
2017-11-26T02:42:25.439Z,938.9
2017-11-26T02:43:27.745Z,938.9
2017-11-26T02:44:30.254Z,938.9
2017-11-26T02:45:32.679Z,938.9
2017-11-26T02:46:35.057Z,939.8
2017-11-26T02:47:37.325Z,939.9
2017-11-26T02:48:39.613Z,939
2017-11-26T02:49:42.262Z,939
2017-11-26T02:50:44.630Z,939.1
2017-11-26T02:51:48.875Z,939.1
2017-11-26T02:52:51.158Z,939.1
2017-11-26T02:53:53.460Z,939.1
2017-11-26T02:54:56.827Z,939.1
2017-11-26T02:55:59.176Z,939.1
2017-11-26T02:57:01.406Z,939.2
2017-11-26T02:58:03.707Z,940.1
2017-11-26T02:59:06.116Z,940.2
2017-11-26T03:00:08.588Z,939.2
2017-11-26T03:01:10.901Z,939.2
2017-11-26T03:02:14.488Z,940.2
2017-11-26T03:03:16.780Z,939.2
2017-11-26T03:04:19.129Z,939.3
2017-11-26T03:05:21.430Z,940.3
2017-11-26T03:06:23.727Z,939.2
2017-11-26T03:07:26.073Z,939.3
2017-11-26T03:08:28.372Z,939.3
2017-11-26T03:09:30.598Z,939.3
2017-11-26T03:10:32.836Z,940.2
2017-11-26T03:11:35.157Z,939.4
2017-11-26T03:12:38.890Z,939.3
2017-11-26T03:13:41.204Z,939.3
2017-11-26T03:14:43.508Z,939.4
2017-11-26T03:15:45.785Z,939.4
2017-11-26T03:16:48.024Z,939.3
2017-11-26T03:17:50.316Z,939.4
2017-11-26T03:18:52.605Z,940.3
2017-11-26T03:19:54.912Z,940.3
2017-11-26T03:20:57.244Z,939.5
2017-11-26T03:21:59.661Z,939.5
2017-11-26T03:23:03.398Z,939.5
2017-11-26T03:24:05.651Z,934.9
2017-11-26T03:25:07.992Z,939.5
2017-11-26T03:26:10.278Z,939.5
2017-11-26T03:27:12.536Z,939.6
2017-11-26T03:28:14.859Z,939.5
2017-11-26T03:29:17.082Z,939.6
2017-11-26T03:30:19.462Z,940.5
2017-11-26T03:31:21.805Z,939.6
2017-11-26T03:32:24.148Z,939.6
2017-11-26T03:33:27.913Z,939.6
2017-11-26T03:34:30.187Z,940.5
2017-11-26T03:35:32.500Z,939.6
2017-11-26T03:36:35.054Z,939.6
2017-11-26T03:37:37.296Z,939.7
2017-11-26T03:38:39.583Z,939.6
2017-11-26T03:39:41.924Z,940.6
2017-11-26T03:40:44.259Z,939.7
2017-11-26T03:41:46.701Z,940.5
2017-11-26T03:42:48.966Z,939.6
2017-11-26T03:43:52.553Z,939.9
2017-11-26T03:44:54.891Z,939.7
2017-11-26T03:45:57.108Z,939.7
2017-11-26T03:46:59.773Z,940.6
2017-11-26T03:48:02.210Z,939.7
2017-11-26T03:49:04.527Z,939.7
2017-11-26T03:50:06.807Z,939.7
2017-11-26T03:51:09.129Z,940.7
2017-11-26T03:52:11.430Z,939.6
2017-11-26T03:53:13.715Z,939.7
2017-11-26T03:54:17.420Z,939.7
2017-11-26T03:55:19.856Z,940.6
2017-11-26T03:56:22.304Z,939.6
2017-11-26T03:57:24.719Z,939.7
2017-11-26T03:58:27.106Z,940.6
2017-11-26T03:59:29.384Z,939.8
2017-11-26T04:00:31.682Z,939.7
2017-11-26T04:01:33.995Z,939.7
2017-11-26T04:02:36.305Z,939.7
2017-11-26T04:03:38.546Z,939.7
2017-11-26T04:04:42.269Z,939.7
2017-11-26T04:05:44.541Z,939.7
2017-11-26T04:06:46.843Z,939.7
2017-11-26T04:07:49.204Z,939.7
2017-11-26T04:08:51.532Z,937.2
2017-11-26T04:09:53.981Z,940.6
2017-11-26T04:10:56.252Z,939.8
2017-11-26T04:11:58.601Z,939.7
2017-11-26T04:13:01.016Z,939.8
2017-11-26T04:14:03.240Z,939.7
2017-11-26T04:15:06.848Z,939.8
2017-11-26T04:16:09.244Z,939.7
2017-11-26T04:17:11.559Z,939.8
2017-11-26T04:18:13.889Z,939.8
2017-11-26T04:19:16.240Z,939.7
2017-11-26T04:20:18.674Z,939.7
2017-11-26T04:21:20.925Z,939.6
2017-11-26T04:22:23.156Z,939.7
2017-11-26T04:23:25.762Z,939.8
2017-11-26T04:24:28.086Z,938.7
2017-11-26T04:25:32.772Z,940.7
2017-11-26T04:26:35.036Z,939.8
2017-11-26T04:27:37.449Z,939.8
2017-11-26T04:28:39.761Z,939.8
2017-11-26T04:29:42.038Z,939.7
2017-11-26T04:30:44.358Z,939.8
2017-11-26T04:31:46.626Z,939.9
2017-11-26T04:32:48.841Z,939.8
2017-11-26T04:33:51.106Z,939.8
2017-11-26T04:34:53.441Z,939.8
2017-11-26T04:35:56.970Z,940.7
2017-11-26T04:36:59.244Z,939.8
2017-11-26T04:38:01.577Z,939.9
2017-11-26T04:39:04.088Z,939.9
2017-11-26T04:40:06.317Z,939.9
2017-11-26T04:41:08.596Z,939.9
2017-11-26T04:42:10.884Z,940
2017-11-26T04:43:13.215Z,939.9
2017-11-26T04:44:15.725Z,940
2017-11-26T04:45:18.047Z,935.3
2017-11-26T04:46:21.633Z,935
2017-11-26T04:47:23.954Z,940
2017-11-26T04:48:26.284Z,940
2017-11-26T04:49:28.620Z,940
2017-11-26T04:50:30.892Z,940
2017-11-26T04:51:33.149Z,940
2017-11-26T04:52:35.492Z,940.1
2017-11-26T04:53:37.815Z,940.2
2017-11-26T04:54:40.262Z,941.1
2017-11-26T04:55:42.555Z,940.2
2017-11-26T04:56:46.292Z,940.2
2017-11-26T04:57:48.590Z,940.2
2017-11-26T04:58:50.981Z,940.2
2017-11-26T04:59:53.216Z,941
2017-11-26T05:00:55.544Z,940.1
2017-11-26T05:01:57.836Z,940.2
2017-11-26T05:03:00.102Z,940.2
2017-11-26T05:04:02.376Z,940.2
2017-11-26T05:05:04.735Z,935.1
2017-11-26T05:06:07.004Z,940.2
2017-11-26T05:07:10.674Z,940.2
2017-11-26T05:08:12.999Z,940.3
2017-11-26T05:09:15.288Z,940.2
2017-11-26T05:10:17.733Z,940.2
2017-11-26T05:11:20.027Z,940.2
2017-11-26T05:12:22.261Z,940.3
2017-11-26T05:13:24.567Z,941.3
2017-11-26T05:14:26.816Z,941.2
2017-11-26T05:15:29.162Z,940.3
2017-11-26T05:16:31.534Z,941.4
2017-11-26T05:17:35.208Z,940.4
2017-11-26T05:18:37.462Z,940.4
2017-11-26T05:19:39.848Z,940.3
2017-11-26T05:20:42.279Z,940.4
2017-11-26T05:21:44.673Z,940.4
2017-11-26T05:22:46.970Z,941.3
2017-11-26T05:23:49.251Z,941.3
2017-11-26T05:24:51.568Z,940.4
2017-11-26T05:25:54.946Z,941.4
2017-11-26T05:26:57.200Z,940.4
2017-11-26T05:28:00.865Z,940.5
2017-11-26T05:29:03.151Z,940.5
2017-11-26T05:30:05.488Z,940.5
2017-11-26T05:31:07.900Z,940.5
2017-11-26T05:32:10.203Z,940.5
2017-11-26T05:33:12.524Z,940.5
2017-11-26T05:34:14.818Z,940.5
2017-11-26T05:35:17.175Z,941.4
2017-11-26T05:36:19.530Z,940.5
2017-11-26T05:37:21.785Z,940.5
2017-11-26T05:38:25.340Z,940.5
2017-11-26T05:39:27.689Z,940.5
2017-11-26T05:40:30.091Z,940.5
2017-11-26T05:41:32.416Z,940.5
2017-11-26T05:42:34.692Z,940.5
2017-11-26T05:43:37.009Z,940.5
2017-11-26T05:44:39.292Z,940.5
2017-11-26T05:45:41.558Z,940.5
2017-11-26T05:46:44.102Z,940.5
2017-11-26T05:47:46.410Z,940.5
2017-11-26T05:48:50.098Z,941.4
2017-11-26T05:49:52.447Z,940.6
2017-11-26T05:50:54.657Z,940.6
2017-11-26T05:51:59.525Z,940.5
2017-11-26T05:53:01.781Z,940.7
2017-11-26T05:54:04.016Z,940.7
2017-11-26T05:55:06.297Z,940.6
2017-11-26T05:56:08.661Z,940.6
2017-11-26T05:57:10.930Z,940.6
2017-11-26T05:58:13.222Z,940.6
2017-11-26T05:59:16.753Z,940.6
2017-11-26T06:00:19.073Z,940.6
2017-11-26T06:01:21.434Z,940.7
2017-11-26T06:02:23.759Z,940.7
2017-11-26T06:03:25.957Z,940.7
2017-11-26T06:04:28.211Z,940.7
2017-11-26T06:05:30.460Z,940.7
2017-11-26T06:06:32.828Z,940.7
2017-11-26T06:07:35.510Z,940.7
2017-11-26T06:08:37.868Z,940.8
2017-11-26T06:09:41.445Z,941
2017-11-26T06:10:43.766Z,941.7
2017-11-26T06:11:46.026Z,940.9
2017-11-26T06:12:48.539Z,940.8
2017-11-26T06:13:50.893Z,940.8
2017-11-26T06:14:53.219Z,940.8
2017-11-26T06:15:55.630Z,941.8
2017-11-26T06:16:57.931Z,940.8
2017-11-26T06:18:00.405Z,940.9
2017-11-26T06:19:02.778Z,941.8
2017-11-26T06:20:06.488Z,940.9
2017-11-26T06:21:08.852Z,940.9
2017-11-26T06:22:11.181Z,940.9
2017-11-26T06:23:13.465Z,935.7
2017-11-26T06:24:15.809Z,940.9
2017-11-26T06:25:18.238Z,941
2017-11-26T06:26:20.516Z,941
2017-11-26T06:27:22.826Z,940.9
2017-11-26T06:28:25.132Z,941
2017-11-26T06:29:27.351Z,940.9
2017-11-26T06:30:31.011Z,940.9
2017-11-26T06:31:33.380Z,941.9
2017-11-26T06:32:35.730Z,940.9
2017-11-26T06:33:38.075Z,940.9
2017-11-26T06:34:40.431Z,940.9
2017-11-26T06:35:42.799Z,941
2017-11-26T06:36:45.090Z,940.9
2017-11-26T06:37:47.420Z,941
2017-11-26T06:38:49.731Z,941
2017-11-26T06:39:52.131Z,941
2017-11-26T06:40:55.718Z,941
2017-11-26T06:41:58.007Z,941.1
2017-11-26T06:43:00.343Z,941.1
2017-11-26T06:44:02.689Z,941.1
2017-11-26T06:45:04.975Z,941.1
2017-11-26T06:46:07.265Z,942.1
2017-11-26T06:47:09.568Z,941
2017-11-26T06:48:11.933Z,941.1
2017-11-26T06:49:14.395Z,941.1
2017-11-26T06:50:16.814Z,941.1
2017-11-26T06:51:20.513Z,942
2017-11-26T06:52:22.839Z,941.1
2017-11-26T06:53:25.140Z,941.2
2017-11-26T06:54:27.491Z,941.1
2017-11-26T06:55:29.890Z,941.2
2017-11-26T06:56:32.172Z,942.2
2017-11-26T06:57:34.470Z,941.2
2017-11-26T06:58:36.741Z,941.2
2017-11-26T06:59:39.021Z,942.2
2017-11-26T07:00:41.478Z,941.2
2017-11-26T07:01:45.175Z,941.3
2017-11-26T07:02:47.481Z,941.3
2017-11-26T07:03:49.829Z,941.3
2017-11-26T07:04:52.107Z,941.4
2017-11-26T07:05:54.446Z,942.2
2017-11-26T07:06:56.729Z,941.3
2017-11-26T07:07:59.028Z,941.3
2017-11-26T07:09:01.345Z,941.3
2017-11-26T07:10:03.633Z,941.3
2017-11-26T07:11:06.023Z,941.4
2017-11-26T07:12:09.765Z,941.3
2017-11-26T07:13:12.058Z,941.3
2017-11-26T07:14:14.410Z,941.4
2017-11-26T07:15:16.856Z,941.4
2017-11-26T07:16:19.322Z,941.2
2017-11-26T07:17:21.560Z,941.4
2017-11-26T07:18:23.860Z,941.7
2017-11-26T07:19:26.183Z,941.3
2017-11-26T07:20:28.551Z,941.3
2017-11-26T07:21:30.847Z,942.3
2017-11-26T07:22:34.466Z,941.4
2017-11-26T07:23:36.817Z,942.3
2017-11-26T07:24:39.069Z,941.4
2017-11-26T07:25:41.372Z,941.4
2017-11-26T07:26:43.673Z,941.5
2017-11-26T07:27:46.083Z,941.5
2017-11-26T07:28:48.444Z,941.5
2017-11-26T07:29:50.835Z,941.6
2017-11-26T07:30:53.116Z,941.5
2017-11-26T07:31:55.526Z,941.6
2017-11-26T07:32:59.143Z,941.6
2017-11-26T07:34:01.553Z,941.6
2017-11-26T07:35:03.842Z,941.6
2017-11-26T07:36:06.123Z,941.6
2017-11-26T07:37:08.610Z,942.6
2017-11-26T07:38:10.949Z,942.7
2017-11-26T07:39:13.341Z,942.7
2017-11-26T07:40:15.696Z,941.6
2017-11-26T07:41:18.074Z,941.8
2017-11-26T07:42:20.464Z,941.7
2017-11-26T07:43:24.252Z,941.8
2017-11-26T07:44:26.683Z,941.8
2017-11-26T07:45:29.056Z,941.9
2017-11-26T07:46:31.337Z,941.8
2017-11-26T07:47:33.693Z,941.8
2017-11-26T07:48:36.020Z,941.8
2017-11-26T07:49:38.365Z,941.8
2017-11-26T07:50:41.587Z,941.9
2017-11-26T07:51:43.897Z,941.8
2017-11-26T07:52:46.217Z,941.8
2017-11-26T07:53:49.781Z,941.9
2017-11-26T07:54:52.069Z,941.9
2017-11-26T07:55:54.325Z,942
2017-11-26T07:56:56.832Z,942
2017-11-26T07:57:59.166Z,941.9
2017-11-26T07:59:01.590Z,941.9
2017-11-26T08:00:03.881Z,941.9
2017-11-26T08:01:06.204Z,941.9
2017-11-26T08:02:08.633Z,941.9
2017-11-26T08:03:10.842Z,941.9
2017-11-26T08:04:14.429Z,941.9
2017-11-26T08:05:16.760Z,941.9
2017-11-26T08:06:19.104Z,941.9
2017-11-26T08:07:21.578Z,941.9
2017-11-26T08:08:23.920Z,942.9
2017-11-26T08:09:26.133Z,942
2017-11-26T08:10:28.471Z,942
2017-11-26T08:11:30.877Z,942.9
2017-11-26T08:12:33.242Z,942
2017-11-26T08:13:35.494Z,942
2017-11-26T08:14:39.312Z,942.1
2017-11-26T08:15:41.617Z,942
2017-11-26T08:16:43.955Z,942.1
2017-11-26T08:17:46.280Z,940.8
2017-11-26T08:18:48.581Z,942
2017-11-26T08:19:50.961Z,942.1
2017-11-26T08:20:53.175Z,942
2017-11-26T08:21:55.567Z,942
2017-11-26T08:22:58.074Z,942
2017-11-26T08:24:00.396Z,942
2017-11-26T08:25:14.057Z,942
2017-11-26T08:26:16.392Z,943
2017-11-26T08:27:18.742Z,942
2017-11-26T08:28:21.126Z,942
2017-11-26T08:29:23.488Z,942
2017-11-26T08:30:25.794Z,942
2017-11-26T08:31:28.143Z,942
2017-11-26T08:32:30.477Z,942.1
2017-11-26T08:33:32.993Z,942
2017-11-26T08:34:35.362Z,942.1
2017-11-26T08:35:39.090Z,942
2017-11-26T08:36:41.635Z,942.1
2017-11-26T08:37:43.947Z,942.1
2017-11-26T08:38:46.502Z,942.1
2017-11-26T08:39:48.781Z,942
2017-11-26T08:40:51.142Z,942
2017-11-26T08:41:53.403Z,942
2017-11-26T08:42:55.758Z,942.1
2017-11-26T08:43:58.455Z,942.1
2017-11-26T08:45:00.891Z,942.4
2017-11-26T08:46:04.656Z,942
2017-11-26T08:47:07.010Z,942.1
2017-11-26T08:48:09.346Z,942
2017-11-26T08:49:11.683Z,942
2017-11-26T08:50:14.126Z,942.1
2017-11-26T08:51:16.371Z,942.1
2017-11-26T08:52:18.779Z,942.1
2017-11-26T08:53:21.006Z,942.1
2017-11-26T08:54:23.424Z,942
2017-11-26T08:55:25.829Z,942
2017-11-26T08:56:29.572Z,942
2017-11-26T08:57:32.537Z,942.1
2017-11-26T08:58:34.917Z,943
2017-11-26T08:59:37.238Z,942
2017-11-26T09:00:39.609Z,942
2017-11-26T09:01:41.906Z,942.2
2017-11-26T09:02:44.215Z,942.1
2017-11-26T09:03:46.633Z,942.1
2017-11-26T09:04:49.003Z,942.1
2017-11-26T09:05:51.481Z,942.1
2017-11-26T09:06:55.259Z,942
2017-11-26T09:07:57.494Z,942.1
2017-11-26T09:08:59.930Z,942.1
2017-11-26T09:10:02.275Z,942.1
2017-11-26T09:11:04.663Z,942.1
2017-11-26T09:12:06.997Z,942.1
2017-11-26T09:13:09.249Z,942
2017-11-26T09:14:11.567Z,942.9
2017-11-26T09:15:14.168Z,942.1
2017-11-26T09:16:16.645Z,943
2017-11-26T09:17:20.250Z,942.9
2017-11-26T09:18:22.716Z,943
2017-11-26T09:19:24.954Z,942.1
2017-11-26T09:20:27.649Z,942.1
2017-11-26T09:21:30.054Z,942.1
2017-11-26T09:22:32.309Z,942
2017-11-26T09:23:34.663Z,942.2
2017-11-26T09:24:36.995Z,942
2017-11-26T09:25:39.314Z,942
2017-11-26T09:26:41.650Z,942
2017-11-26T09:27:45.389Z,942.1
2017-11-26T09:28:47.676Z,942
2017-11-26T09:29:49.941Z,942
2017-11-26T09:30:52.354Z,942
2017-11-26T09:31:54.609Z,943
2017-11-26T09:32:57.164Z,942
2017-11-26T09:33:59.533Z,943
2017-11-26T09:35:01.880Z,942
2017-11-26T09:36:04.230Z,942
2017-11-26T09:37:06.627Z,942.8
2017-11-26T09:38:10.398Z,942
2017-11-26T09:39:12.756Z,942.9
2017-11-26T09:40:15.095Z,942
2017-11-26T09:41:17.401Z,942.9
2017-11-26T09:42:19.661Z,942
2017-11-26T09:43:22.130Z,942.1
2017-11-26T09:44:24.454Z,942.1
2017-11-26T09:45:26.698Z,942
2017-11-26T09:46:29.081Z,942
2017-11-26T09:47:31.421Z,942
2017-11-26T09:48:35.164Z,943
2017-11-26T09:49:37.467Z,942.1
2017-11-26T09:50:39.945Z,943
2017-11-26T09:51:42.293Z,942.1
2017-11-26T09:52:44.671Z,942
2017-11-26T09:53:46.960Z,942
2017-11-26T09:54:49.234Z,941.9
2017-11-26T09:55:51.576Z,941.9
2017-11-26T09:56:53.945Z,942.8
2017-11-26T09:57:56.355Z,941.9
2017-11-26T09:59:00.093Z,942
2017-11-26T10:00:02.471Z,941.8
2017-11-26T10:01:04.802Z,941.8
2017-11-26T10:02:07.093Z,942.8
2017-11-26T10:03:09.448Z,941.9
2017-11-26T10:04:11.680Z,941.9
2017-11-26T10:05:14.109Z,941.9
2017-11-26T10:06:16.398Z,941.9
2017-11-26T10:07:18.968Z,941.9
2017-11-26T10:08:21.332Z,942.9
2017-11-26T10:09:25.027Z,942
2017-11-26T10:10:27.421Z,941.9
2017-11-26T10:11:29.751Z,942
2017-11-26T10:12:32.296Z,941.9
2017-11-26T10:13:34.629Z,941.9
2017-11-26T10:14:37.015Z,942
2017-11-26T10:15:39.283Z,942
2017-11-26T10:16:41.640Z,942
2017-11-26T10:17:44.218Z,941.9
2017-11-26T10:18:46.454Z,942.7
2017-11-26T10:19:50.212Z,942.8
2017-11-26T10:20:52.570Z,941.9
2017-11-26T10:21:55.030Z,941.9
2017-11-26T10:22:57.393Z,941.8
2017-11-26T10:23:59.662Z,941.8
2017-11-26T10:25:02.685Z,942.8
2017-11-26T10:26:04.987Z,941.9
2017-11-26T10:27:07.377Z,941.9
2017-11-26T10:28:09.685Z,942.8
2017-11-26T10:29:11.981Z,942
2017-11-26T10:30:16.283Z,941.9
2017-11-26T10:31:18.604Z,942.9
2017-11-26T10:32:21.708Z,942
2017-11-26T10:33:24.087Z,941.9
2017-11-26T10:34:26.438Z,941.9
2017-11-26T10:35:28.841Z,941.9
2017-11-26T10:36:31.176Z,941.9
2017-11-26T10:37:33.536Z,941.9
2017-11-26T10:38:35.920Z,941.8
2017-11-26T10:39:38.193Z,941.8
2017-11-26T10:40:41.812Z,941.9
2017-11-26T10:41:44.086Z,941.8
2017-11-26T10:42:46.472Z,941.8
2017-11-26T10:43:48.834Z,941.9
2017-11-26T10:44:51.099Z,941.8
2017-11-26T10:45:53.493Z,941.8
2017-11-26T10:46:55.850Z,941.8
2017-11-26T10:47:58.193Z,941.9
2017-11-26T10:49:00.956Z,942.7
2017-11-26T10:50:03.346Z,941.8
2017-11-26T10:51:07.042Z,941.8
2017-11-26T10:52:09.383Z,941.8
2017-11-26T10:53:11.809Z,942
2017-11-26T10:54:14.329Z,942.9
2017-11-26T10:55:16.716Z,941.9
2017-11-26T10:56:19.087Z,942.8
2017-11-26T10:57:21.368Z,942.8
2017-11-26T10:58:23.819Z,942
2017-11-26T10:59:26.195Z,942.9
2017-11-26T11:00:28.475Z,941.9
2017-11-26T11:01:32.174Z,941.9
2017-11-26T11:02:34.531Z,941.9
2017-11-26T11:03:36.995Z,942
2017-11-26T11:04:39.330Z,942
2017-11-26T11:05:41.792Z,941.9
2017-11-26T11:06:44.232Z,942
2017-11-26T11:07:46.547Z,942
2017-11-26T11:08:48.875Z,942
2017-11-26T11:09:51.217Z,941.9
2017-11-26T11:10:53.597Z,942
2017-11-26T11:11:57.336Z,942
2017-11-26T11:12:59.708Z,942
2017-11-26T11:14:01.985Z,942
2017-11-26T11:15:04.402Z,942
2017-11-26T11:16:06.764Z,937.5
2017-11-26T11:17:09.107Z,942
2017-11-26T11:18:11.421Z,942
2017-11-26T11:19:13.687Z,942
2017-11-26T11:20:16.016Z,941.9
2017-11-26T11:21:18.313Z,941.9
2017-11-26T11:22:22.120Z,942.9
2017-11-26T11:23:24.362Z,942
2017-11-26T11:24:26.729Z,941.9
2017-11-26T11:25:29.176Z,942
2017-11-26T11:26:31.603Z,941.9
2017-11-26T11:27:33.919Z,941.9
2017-11-26T11:28:36.343Z,941.9
2017-11-26T11:29:38.803Z,941.9
2017-11-26T11:30:41.242Z,941.9
2017-11-26T11:31:43.545Z,941.8
2017-11-26T11:32:47.114Z,942.7
2017-11-26T11:33:50.172Z,941.9
2017-11-26T11:34:52.454Z,942.8
2017-11-26T11:35:54.808Z,937.1
2017-11-26T11:36:57.198Z,941.9
2017-11-26T11:38:00.031Z,941.9
2017-11-26T11:39:02.398Z,941.9
2017-11-26T11:40:04.718Z,941.9
2017-11-26T11:41:07.164Z,942.8
2017-11-26T11:42:09.541Z,941.8
2017-11-26T11:43:13.229Z,941.8
2017-11-26T11:44:15.617Z,941.8
2017-11-26T11:45:17.970Z,942.8
2017-11-26T11:46:20.419Z,942.6
2017-11-26T11:47:22.835Z,942.7
2017-11-26T11:48:25.229Z,941.8
2017-11-26T11:49:27.672Z,937.9
2017-11-26T11:50:30.032Z,942.7
2017-11-26T11:51:32.517Z,941.8
2017-11-26T11:52:34.977Z,941.9
2017-11-26T11:53:38.646Z,941.8
2017-11-26T11:54:41.032Z,941.8
2017-11-26T11:55:43.393Z,941.8
2017-11-26T11:56:45.734Z,942.7
2017-11-26T11:57:48.168Z,941.9
2017-11-26T11:58:50.516Z,941.8
2017-11-26T11:59:52.837Z,941.8
2017-11-26T12:00:55.205Z,941.8
2017-11-26T12:01:57.525Z,941.8
2017-11-26T12:02:59.836Z,942.2
2017-11-26T12:04:03.784Z,942.7
2017-11-26T12:05:06.147Z,941.8
2017-11-26T12:06:08.574Z,941.8
2017-11-26T12:07:10.888Z,942.7
2017-11-26T12:08:13.257Z,942.7
2017-11-26T12:09:15.502Z,941.7
2017-11-26T12:10:17.863Z,941.7
2017-11-26T12:11:20.227Z,941.7
2017-11-26T12:12:22.502Z,942.7
2017-11-26T12:13:24.942Z,941.7
2017-11-26T12:18:47.072Z,941.8
2017-11-26T12:19:49.364Z,941.7
2017-11-26T12:20:51.763Z,941.7
2017-11-26T12:21:54.217Z,941.7
2017-11-26T12:22:56.553Z,941.7
2017-11-26T12:23:58.972Z,941.8
2017-11-26T12:25:01.342Z,941.8
2017-11-26T12:26:03.708Z,941.7
2017-11-26T12:27:06.006Z,941.8
2017-11-26T12:28:08.369Z,941.7
2017-11-26T12:29:12.522Z,941.8
2017-11-26T12:30:14.827Z,941.8
2017-11-26T12:31:17.140Z,941.8
2017-11-26T12:32:19.562Z,941.8
2017-11-26T12:33:22.122Z,941.9
2017-11-26T12:34:24.485Z,941.9
2017-11-26T12:35:26.786Z,942.7
2017-11-26T12:36:29.202Z,941.8
2017-11-26T12:37:31.514Z,941.8
2017-11-26T12:38:33.951Z,942.7
2017-11-26T12:39:37.618Z,941.8
2017-11-26T12:40:39.854Z,941.8
2017-11-26T12:41:42.170Z,941.9
2017-11-26T12:42:44.568Z,941.8
2017-11-26T12:43:46.979Z,941.7
2017-11-26T12:44:49.338Z,941.9
2017-11-26T12:45:51.586Z,941.8
2017-11-26T12:46:53.893Z,941.8
2017-11-26T12:47:56.250Z,942.7
2017-11-26T12:48:58.484Z,941.8
2017-11-26T12:50:02.355Z,941.9
2017-11-26T12:51:04.744Z,941.8
2017-11-26T12:52:07.160Z,941.8
2017-11-26T12:53:09.500Z,941.8
2017-11-26T12:54:11.956Z,942.8
2017-11-26T12:55:14.403Z,942.7
2017-11-26T12:56:16.812Z,941.9
2017-11-26T12:57:19.149Z,941.9
2017-11-26T12:58:21.442Z,942.8
2017-11-26T12:59:23.826Z,942.9
2017-11-26T13:00:27.677Z,941.9
2017-11-26T13:01:30.159Z,941.9
2017-11-26T13:02:32.505Z,941.9
2017-11-26T13:03:34.791Z,942
2017-11-26T13:04:37.107Z,942.9
2017-11-26T13:05:39.505Z,941.9
2017-11-26T13:06:41.914Z,941.9
2017-11-26T13:07:44.210Z,942.8
2017-11-26T13:08:46.568Z,942.8
2017-11-26T13:09:49.012Z,942.8
2017-11-26T13:10:52.825Z,941.9
2017-11-26T13:11:55.119Z,942.8
2017-11-26T13:12:57.597Z,942
2017-11-26T13:13:59.958Z,942.8
2017-11-26T13:15:02.290Z,941.9
2017-11-26T13:16:04.668Z,942.8
2017-11-26T13:17:06.989Z,942.1
2017-11-26T13:18:09.307Z,941.9
2017-11-26T13:19:11.676Z,941.9
2017-11-26T13:20:14.039Z,941.9
2017-11-26T13:21:18.067Z,942.9
2017-11-26T13:22:20.373Z,942
2017-11-26T13:23:22.782Z,942
2017-11-26T13:24:25.125Z,942
2017-11-26T13:25:27.408Z,942
2017-11-26T13:26:29.805Z,941.9
2017-11-26T13:27:32.191Z,942.8
2017-11-26T13:28:34.539Z,941.9
2017-11-26T13:29:36.941Z,941.9
2017-11-26T13:30:39.412Z,942
2017-11-26T13:31:43.168Z,942
2017-11-26T13:32:46.213Z,942.9
2017-11-26T13:33:48.512Z,942.1
2017-11-26T13:34:50.989Z,942.9
2017-11-26T13:35:53.235Z,942
2017-11-26T13:36:55.627Z,942.1
2017-11-26T13:37:58.009Z,942.1
2017-11-26T13:39:00.268Z,942